Nearby METAR Reports

 

KLXT - Lees Summit Muni, Missouri, USA
Distance from station: E 5mi, 9km
Updated: Sun, 26-Apr-2015 12:53am CDT
Mist, Overcast
Mist, Overcast
 Wind from NE
Wind: NE 13 mph , 20 km/h
Temperature: 48°F , 9°C
Wind Chill: 43°F , 6°C
Dew Point: 48°F , 9°C
Humidity: 100%
Barometer: 29.83 inHg , 1010.2 hPa
Summary: Mist
Clouds: Overcast
Visibility: 6 miles , 10 km
Cloud details: Overcast 400 ft
2015/04/26 05:53 KLXT 260553Z AUTO 05011KT 6SM BR OVC004 09/09 A2983 RMK AO2 SLP100 T00940089 10106 20094 401780094 53016
KMKC - Kansas City/Dntn, Missouri, USA
Distance from station: NW 12mi, 19km
Updated: Sun, 26-Apr-2015 12:54am CDT
Overcast
Overcast
 Wind from NE
Wind: NE 12 mph , 19 km/h
Temperature: 52°F , 11°C
Dew Point: 48°F , 9°C
Humidity: 88%
Barometer: 29.83 inHg , 1010.2 hPa
Clouds: Overcast
Visibility: 8 miles , 13 km
Cloud details: Overcast 700 ft
2015/04/26 05:54 KMKC 260554Z 04010KT 8SM OVC007 11/09 A2983 RMK AO2 SLP098 6//// T01060089 10117 20106 401890106 51015 PNO $
 
KIXD - Olathe/Industria, Kansas, USA
Distance from station: WSW 25mi, 41km
Updated: Sun, 26-Apr-2015 12:53am CDT
Mist, Overcast
Mist, Overcast
 Wind from NNE
Wind: NNE 7 mph , 11 km/h
Temperature: 48°F , 9°C
Wind Chill: 45°F , 7°C
Dew Point: 48°F , 9°C
Humidity: 100%
Barometer: 29.83 inHg , 1010.2 hPa
Summary: Mist
Clouds: Overcast
Visibility: 4 miles , 6 km
Cloud details: Overcast 500 ft
2015/04/26 05:53 KIXD 260553Z 02006KT 4SM BR OVC005 09/09 A2983 RMK AO2 SLP100 T00940089 10117 20094 401830094 53016
KMCI - Kansas City/Intl, Missouri, USA
Distance from station: NW 26mi, 42km
Updated: Sun, 26-Apr-2015 1:00am CDT
Mist, Overcast
Mist, Overcast
 Wind from NE
Wind: NE 12 mph , 19 km/h
Temperature: 48°F , 9°C
Wind Chill: 43°F , 6°C
Dew Point: 46°F , 8°C
Humidity: 94%
Barometer: 29.84 inHg , 1010.5 hPa
Summary: Mist
Clouds: Overcast
Visibility: 6 miles , 10 km
Cloud details: Overcast 800 ft
2015/04/26 06:00 KMCI 260600Z 04010KT 6SM BR OVC008 09/08 A2984 RMK AO2 CIG 006V011 T00940083 $
 
KRCM - Warrensburg Skyh, Missouri, USA
Distance from station: ESE 38mi, 62km
Updated: Sun, 26-Apr-2015 12:55am CDT
Overcast
Overcast
 Wind from N
Wind: N 13 mph , 20 km/h
Temperature: 50°F , 10°C
Wind Chill: 45°F , 7°C
Dew Point: 46°F , 8°C
Humidity: 88%
Barometer: 29.83 inHg , 1010.2 hPa
Clouds: Overcast
Visibility: 10 miles , 16 km
Cloud details: Overcast 800 ft
2015/04/26 05:55 KRCM 260555Z AUTO 01011KT 10SM OVC008 10/08 A2983 RMK AO2
KLWC - Lawrence, Kansas, USA
Distance from station: W 40mi, 65km
Updated: Sun, 26-Apr-2015 12:52am CDT
Overcast
Overcast
 Wind from NE
Wind: NE 7 mph , 11 km/h
Temperature: 50°F , 10°C
Wind Chill: 47°F , 8°C
Dew Point: 46°F , 8°C
Humidity: 88%
Barometer: 29.84 inHg , 1010.5 hPa
Clouds: Overcast
Visibility: 10 miles , 16 km
Cloud details: Overcast 1100 ft
2015/04/26 05:52 KLWC 260552Z AUTO 04006KT 10SM OVC011 10/08 A2984 RMK AO2 SLP103 T01000078 10117 20094 401890094 53014
 
KSZL - Whiteman Afb, Missouri, USA
Distance from station: ESE 53mi, 86km
Updated: Sun, 26-Apr-2015 12:58am CDT
Overcast
Overcast
 Wind from NE
Wind: NE 13 mph , 20 km/h
Temperature: 50°F , 10°C
Wind Chill: 45°F , 7°C
Dew Point: 48°F , 9°C
Humidity: 94%
Barometer: 29.81 inHg , 1009.5 hPa
Clouds: Overcast
Visibility: 8 miles , 13 km
Cloud details: Overcast 800 ft
2015/04/26 05:58 KSZL 260558Z AUTO 05011KT 8SM R19/5500FT OVC008 10/09 A2981 RMK AO2 DZE36 SLP096 60000 T00970087 10123 20097 $
KSTJ - St. Joseph, Missouri, USA
Distance from station: NNW 59mi, 95km
Updated: Sun, 26-Apr-2015 12:53am CDT
Mist, Overcast
Mist, Overcast
 Wind from NE
Wind: NE 8 mph , 13 km/h
Temperature: 48°F , 9°C
Wind Chill: 44°F , 7°C
Dew Point: 46°F , 8°C
Humidity: 94%
Barometer: 29.86 inHg , 1011.2 hPa
Summary: Mist
Clouds: Overcast
Visibility: 5 miles , 8 km
Cloud details: Mostly cloudy 1100 ft
Overcast 1900 ft
2015/04/26 05:53 KSTJ 260553Z AUTO 05007KT 5SM BR BKN011 OVC019 09/08 A2986 RMK AO2 SLP112 T00940078 10100 20094 401560094 53018
 
KGLY - Clinton, Missouri, USA
Distance from station: SE 61mi, 98km
Updated: Sun, 26-Apr-2015 12:55am CDT
Mist, Overcast
Mist, Overcast
 Wind from NNE
Wind: NNE 12 mph , 19 km/h
Temperature: 52°F , 11°C
Dew Point: 50°F , 10°C
Humidity: 94%
Barometer: 29.81 inHg , 1009.5 hPa
Summary: Mist
Clouds: Overcast
Visibility: 4 miles , 6 km
Cloud details: Overcast 800 ft
2015/04/26 05:55 KGLY 260555Z AUTO 03010KT 4SM BR OVC008 11/10 A2981 RMK AO2
KFOE - Topeka/Forbes, Kansas, USA
Distance from station: W 64mi, 103km
Updated: Sun, 26-Apr-2015 12:53am CDT
Overcast
Overcast
 Wind from NNE
Wind: NNE 6 mph , 9 km/h
Temperature: 52°F , 11°C
Dew Point: 46°F , 8°C
Humidity: 82%
Barometer: 29.83 inHg , 1010.2 hPa
Clouds: Overcast
Visibility: 10 miles , 16 km
Cloud details: Overcast 1100 ft
2015/04/26 05:53 KFOE 260553Z AUTO 03005KT 10SM OVC011 11/08 A2983 RMK AO2 SLP099 T01060083 10128 20100 401940100 53013
 
KDMO - Sedalia, Missouri, USA
Distance from station: ESE 72mi, 116km
Updated: Sun, 26-Apr-2015 12:53am CDT
Overcast
Overcast
 Wind from NNE
Wind: NNE 12 mph , 19 km/h
Temperature: 50°F , 10°C
Wind Chill: 45°F , 7°C
Dew Point: 46°F , 8°C
Humidity: 88%
Barometer: 29.83 inHg , 1010.2 hPa
Clouds: Overcast
Visibility: 7 miles , 11 km
Cloud details: Overcast 600 ft
2015/04/26 05:53 KDMO 260553Z AUTO 03010KT 7SM OVC006 10/08 A2983 RMK AO2 RAE21 SLP098 P0001 60005 T01000083 10139 20100 402220100 51025 TSNO
KCDJ - Chillicothe, Missouri, USA
Distance from station: NE 74mi, 120km
Updated: Sun, 26-Apr-2015 12:52am CDT

 Wind from ENE
Wind: ENE 8 mph , 13 km/h
Temperature: 48°F , 9°C
Wind Chill: 44°F , 7°C
Dew Point: 45°F , 7°C
Humidity: 87%
Barometer: 29.87 inHg , 1011.5 hPa
2015/04/26 05:52 KCDJ 260552Z AUTO 06007KT 09/07 A2987 RMK AO1 SLP116 T00940072 10111 20094 401440094 53020
 
KFNB - Falls City/Brenn, Nebraska, USA
Distance from station: NW 96mi, 154km
Updated: Sun, 26-Apr-2015 12:53am CDT
Overcast
Overcast
 Wind from ENE
Wind: ENE 12 mph , 19 km/h
Temperature: 48°F , 9°C
Wind Chill: 43°F , 6°C
Dew Point: 45°F , 7°C
Humidity: 87%
Barometer: 29.87 inHg , 1011.5 hPa
Clouds: Overcast
Visibility: 10 miles , 16 km
Cloud details: Overcast 1200 ft
2015/04/26 05:53 KFNB 260553Z AUTO 07010KT 10SM OVC012 09/07 A2987 RMK AO2 SLP114 T00940072 10094 20094 401440094 51018
KVER - Boonville, Missouri, USA
Distance from station: E 96mi, 154km
Updated: Sun, 26-Apr-2015 12:55am CDT
Overcast
Overcast
 Wind from NE
Wind: NE 10 mph , 17 km/h
Temperature: 48°F , 9°C
Wind Chill: 44°F , 7°C
Dew Point: 48°F , 9°C
Humidity: 100%
Barometer: 29.83 inHg , 1010.2 hPa
Clouds: Overcast
Visibility: 7 miles , 11 km
Cloud details: Overcast 800 ft
2015/04/26 05:55 KVER 260555Z AUTO 04009KT 7SM OVC008 09/09 A2983 RMK AO2 60002 T00920089 10275 21183 402751183